Terminal Aerodrome Forecast
Issued by NWS Buffalo, NY

Home | Current Version | Previous Version | Text Only | Print | Product List | Glossary On
Versions: 1 2 3 4 5 6 7 8 9 10 11 12 13 14 15 16 17 18 19 20 21 22 23 24 25 26 27 28 29 30
000
FTUS41 KBUF 020100 AAA
TAFBUF
TAF AMD
KBUF 020116Z 0201/0224 01005KT P6SM BKN250
     FM020300 VRB04KT P6SM BKN250
     FM020500 16004KT P6SM FEW025 SCT045
     FM020900 18005KT P6SM SCT060 BKN090
     FM021800 00000KT 6SM -SHRA VCTS SCT060CB BKN090
     FM022100 07004KT P6SM VCSH SCT040 BKN080=

USA.gov is the U.S. government's official web portal to all federal, state and local government web resources and services.